createdAt,value
2019-04-28T00:01:54.503Z,9.06
2019-04-28T00:04:22.756Z,9.06
2019-04-28T00:06:51.763Z,9.05
2019-04-28T00:09:23.106Z,9.12
2019-04-28T00:11:51.800Z,9.12
2019-04-28T00:14:21.980Z,9.02
2019-04-28T00:16:51.198Z,9.03
2019-04-28T00:19:21.011Z,9.04
2019-04-28T00:21:53.653Z,9.00
2019-04-28T00:24:35.473Z,9.10
2019-04-28T00:27:04.775Z,9.01
2019-04-28T00:29:40.515Z,9.02
2019-04-28T00:32:03.154Z,9.01
2019-04-28T00:34:31.439Z,9.00
2019-04-28T00:37:01.434Z,9.04
2019-04-28T00:39:31.028Z,9.12
2019-04-28T00:42:03.088Z,9.10
2019-04-28T00:44:31.373Z,9.06
2019-04-28T00:47:01.102Z,9.00
2019-04-28T00:49:47.535Z,8.96
2019-04-28T00:52:17.124Z,8.88
2019-04-28T00:54:46.450Z,8.95
2019-04-28T00:57:14.688Z,8.95
2019-04-28T00:59:54.003Z,8.86
2019-04-28T01:02:23.206Z,8.89
2019-04-28T01:04:51.557Z,8.97
2019-04-28T01:07:21.267Z,8.98
2019-04-28T01:09:51.622Z,8.95
2019-04-28T01:12:21.254Z,8.89
2019-04-28T01:14:52.226Z,8.86
2019-04-28T01:17:24.794Z,8.87
2019-04-28T01:19:54.666Z,8.83
2019-04-28T01:22:22.949Z,8.76
2019-04-28T01:24:51.185Z,8.73
2019-04-28T01:27:24.071Z,8.70
2019-04-28T01:30:05.151Z,8.74
2019-04-28T01:32:23.948Z,8.69
2019-04-28T01:34:52.184Z,8.67
2019-04-28T01:37:20.451Z,8.65
2019-04-28T01:39:49.644Z,8.64
2019-04-28T01:42:20.258Z,8.59
2019-04-28T01:44:49.488Z,8.54
2019-04-28T01:47:18.015Z,8.54
2019-04-28T01:49:46.256Z,8.52
2019-04-28T01:52:14.485Z,8.53
2019-04-28T01:54:42.772Z,8.50
2019-04-28T01:57:11.001Z,8.47
2019-04-28T01:59:40.252Z,8.48
2019-04-28T02:02:10.133Z,8.49
2019-04-28T02:04:40.287Z,8.55
2019-04-28T02:07:08.666Z,8.52
2019-04-28T02:09:39.478Z,8.48
2019-04-28T02:12:07.370Z,8.49
2019-04-28T02:14:35.644Z,8.50
2019-04-28T02:17:03.882Z,8.50
2019-04-28T02:19:33.030Z,8.43
2019-04-28T02:22:11.880Z,8.52
2019-04-28T02:24:40.586Z,8.48
2019-04-28T02:27:10.561Z,8.54
2019-04-28T02:29:41.410Z,8.51
2019-04-28T02:32:10.686Z,8.47
2019-04-28T02:34:41.163Z,8.51
2019-04-28T02:37:11.238Z,8.50
2019-04-28T02:39:40.892Z,8.47
2019-04-28T02:42:10.905Z,8.44
2019-04-28T02:44:40.414Z,8.45
2019-04-28T02:47:10.806Z,8.41
2019-04-28T02:49:55.855Z,8.41
2019-04-28T02:52:30.890Z,8.37
2019-04-28T02:55:03.050Z,8.43
2019-04-28T02:57:30.500Z,8.39
2019-04-28T03:00:00.420Z,8.37
2019-04-28T03:02:31.681Z,8.31
2019-04-28T03:05:00.337Z,8.31
2019-04-28T03:07:30.683Z,8.30
2019-04-28T03:10:01.143Z,8.29
2019-04-28T03:12:31.289Z,8.23
2019-04-28T03:15:00.472Z,8.17
2019-04-28T03:17:30.921Z,8.34
2019-04-28T03:20:01.013Z,8.38
2019-04-28T03:22:32.935Z,8.37
2019-04-28T03:25:00.941Z,8.36
2019-04-28T03:27:31.128Z,8.28
2019-04-28T03:30:01.184Z,8.27
2019-04-28T03:32:45.615Z,8.20
2019-04-28T03:35:04.580Z,8.24
2019-04-28T03:37:32.808Z,8.19
2019-04-28T03:40:01.083Z,8.21
2019-04-28T03:42:31.381Z,8.25
2019-04-28T03:45:01.196Z,8.23
2019-04-28T03:47:31.221Z,8.23
2019-04-28T03:50:00.108Z,8.24
2019-04-28T03:52:31.602Z,8.24
2019-04-28T03:55:00.528Z,8.21
2019-04-28T03:57:31.104Z,8.14
2019-04-28T04:00:01.490Z,8.16
2019-04-28T04:02:31.118Z,8.18
2019-04-28T04:05:03.309Z,8.18
2019-04-28T04:07:31.142Z,8.21
2019-04-28T04:10:01.085Z,8.23
2019-04-28T04:12:34.018Z,8.23
2019-04-28T04:15:11.267Z,8.30
2019-04-28T04:17:41.466Z,8.44
2019-04-28T04:20:11.045Z,8.46
2019-04-28T04:22:41.158Z,8.44
2019-04-28T04:25:12.444Z,8.34
2019-04-28T04:27:40.608Z,8.37
2019-04-28T04:30:10.823Z,8.35
2019-04-28T04:32:41.142Z,8.24
2019-04-28T04:35:10.377Z,8.33
2019-04-28T04:37:40.652Z,8.27
2019-04-28T04:40:13.077Z,8.24
2019-04-28T04:42:40.338Z,8.29
2019-04-28T04:45:10.562Z,8.31
2019-04-28T04:47:40.670Z,8.27
2019-04-28T04:50:11.373Z,8.33
2019-04-28T04:52:40.259Z,8.33
2019-04-28T04:55:11.148Z,8.38
2019-04-28T04:57:40.712Z,8.33
2019-04-28T05:00:10.530Z,8.39
2019-04-28T05:02:51.219Z,8.44
2019-04-28T05:05:17.695Z,8.40
2019-04-28T05:07:45.944Z,8.39
2019-04-28T05:10:15.486Z,8.32
2019-04-28T05:12:43.732Z,8.36
2019-04-28T05:15:12.021Z,8.48
2019-04-28T05:17:40.316Z,8.52
2019-04-28T05:20:09.884Z,8.43
2019-04-28T05:22:40.048Z,8.36
2019-04-28T05:25:12.012Z,8.37
2019-04-28T05:27:40.584Z,8.41
2019-04-28T05:30:10.411Z,8.40
2019-04-28T05:32:44.735Z,8.43
2019-04-28T05:35:10.227Z,8.46
2019-04-28T05:37:40.485Z,8.42
2019-04-28T05:40:10.479Z,8.47
2019-04-28T05:42:40.310Z,8.43
2019-04-28T05:45:10.390Z,8.47
2019-04-28T05:47:40.658Z,8.45
2019-04-28T05:50:10.740Z,8.47
2019-04-28T05:52:56.836Z,8.41
2019-04-28T05:55:26.807Z,8.49
2019-04-28T05:57:56.679Z,8.52
2019-04-28T06:00:39.706Z,8.50
2019-04-28T06:03:10.343Z,8.58
2019-04-28T06:05:39.575Z,8.56
2019-04-28T06:08:25.941Z,8.66
2019-04-28T06:10:54.295Z,8.65
2019-04-28T06:13:22.541Z,8.68
2019-04-28T06:15:50.794Z,8.72
2019-04-28T06:18:20.585Z,8.74
2019-04-28T06:20:49.758Z,8.74
2019-04-28T06:23:18.437Z,8.79
2019-04-28T06:25:46.673Z,8.81
2019-04-28T06:28:14.982Z,8.91
2019-04-28T06:30:43.224Z,8.95
2019-04-28T06:33:11.504Z,8.92
2019-04-28T06:35:39.745Z,8.97
2019-04-28T06:38:08.015Z,9.15
2019-04-28T06:40:36.246Z,9.13
2019-04-28T06:43:04.522Z,9.21
2019-04-28T06:45:32.761Z,9.22
2019-04-28T06:48:01.037Z,9.16
2019-04-28T06:50:29.272Z,9.16
2019-04-28T06:52:57.578Z,9.11
2019-04-28T06:55:25.810Z,9.19
2019-04-28T06:57:54.040Z,9.24
2019-04-28T07:00:22.370Z,9.32
2019-04-28T07:02:50.611Z,9.22
2019-04-28T07:05:18.898Z,9.24
2019-04-28T07:07:47.132Z,9.29
2019-04-28T07:10:15.482Z,9.33
2019-04-28T07:12:43.724Z,9.28
2019-04-28T07:15:12.004Z,9.28
2019-04-28T07:17:40.245Z,9.24
2019-04-28T07:20:10.172Z,9.33
2019-04-28T07:22:38.419Z,9.48
2019-04-28T07:25:06.680Z,9.57
2019-04-28T07:27:34.919Z,9.64
2019-04-28T07:30:04.416Z,9.68
2019-04-28T07:32:32.663Z,9.75
2019-04-28T07:35:00.951Z,9.79
2019-04-28T07:37:29.183Z,9.90
2019-04-28T07:39:57.486Z,10.05
2019-04-28T07:42:25.721Z,9.96
2019-04-28T07:44:53.954Z,9.88
2019-04-28T07:47:22.239Z,10.03
2019-04-28T07:49:50.485Z,10.44
2019-04-28T07:52:20.421Z,10.73
2019-04-28T07:54:48.658Z,10.65
2019-04-28T07:57:16.937Z,10.81
2019-04-28T07:59:45.181Z,11.09
2019-04-28T08:02:13.483Z,10.83
2019-04-28T08:04:41.724Z,10.83
2019-04-28T08:07:10.013Z,10.65
2019-04-28T08:09:38.475Z,10.43
2019-04-28T08:12:06.836Z,10.42
2019-04-28T08:14:35.070Z,10.40
2019-04-28T08:17:03.362Z,10.32
2019-04-28T08:19:31.604Z,10.35
2019-04-28T08:21:59.913Z,10.34
2019-04-28T08:24:28.160Z,10.61
2019-04-28T08:26:56.476Z,10.68
2019-04-28T08:29:24.897Z,10.53
2019-04-28T08:32:10.990Z,10.37
2019-04-28T08:34:39.342Z,10.30
2019-04-28T08:37:07.576Z,10.34
2019-04-28T08:39:35.860Z,10.64
2019-04-28T08:42:04.102Z,11.14
2019-04-28T08:44:32.386Z,11.26
2019-04-28T08:47:00.632Z,11.22
2019-04-28T08:49:28.913Z,10.97
2019-04-28T08:51:57.159Z,11.26
2019-04-28T08:54:25.435Z,11.83
2019-04-28T08:56:53.674Z,11.56
2019-04-28T08:59:22.137Z,11.35
2019-04-28T09:01:50.427Z,11.41
2019-04-28T09:04:18.664Z,11.95
2019-04-28T09:06:46.943Z,12.32
2019-04-28T09:09:16.835Z,11.94
2019-04-28T09:11:45.293Z,12.07
2019-04-28T09:14:13.545Z,12.15
2019-04-28T09:16:41.813Z,11.70
2019-04-28T09:19:10.134Z,11.50
2019-04-28T09:21:38.425Z,11.40
2019-04-28T09:24:06.665Z,11.17
2019-04-28T09:26:36.987Z,10.90
2019-04-28T09:29:04.956Z,10.45
2019-04-28T09:31:33.196Z,10.23
2019-04-28T09:34:01.488Z,10.08
2019-04-28T09:36:29.969Z,10.08
2019-04-28T09:38:58.383Z,10.27
2019-04-28T09:41:26.623Z,10.52
2019-04-28T09:43:59.235Z,11.07
2019-04-28T09:46:29.122Z,11.43
2019-04-28T09:48:57.491Z,11.30
2019-04-28T09:51:25.730Z,11.14
2019-04-28T09:53:54.003Z,11.38
2019-04-28T09:56:22.238Z,11.80
2019-04-28T09:58:50.518Z,11.58
2019-04-28T10:01:18.756Z,11.40
2019-04-28T10:03:47.037Z,11.38
2019-04-28T10:06:15.310Z,11.64
2019-04-28T10:08:43.550Z,11.70
2019-04-28T10:11:11.842Z,11.84
2019-04-28T10:13:40.070Z,11.91
2019-04-28T10:16:08.368Z,11.60
2019-04-28T10:18:36.595Z,11.64
2019-04-28T10:21:04.887Z,11.82
2019-04-28T10:23:33.123Z,11.85
2019-04-28T10:26:01.867Z,12.08
2019-04-28T10:28:30.097Z,12.33
2019-04-28T10:30:58.382Z,12.62
2019-04-28T10:33:26.617Z,12.82
2019-04-28T10:35:54.853Z,13.49
2019-04-28T10:38:23.121Z,13.48
2019-04-28T10:41:04.849Z,13.54
2019-04-28T10:43:33.155Z,14.03
2019-04-28T10:46:01.402Z,13.61
2019-04-28T10:48:29.716Z,13.17
2019-04-28T10:50:57.950Z,12.80
2019-04-28T10:53:26.216Z,12.52
2019-04-28T10:55:54.443Z,12.19
2019-04-28T10:58:22.722Z,11.86
2019-04-28T11:00:50.964Z,11.76
2019-04-28T11:03:19.249Z,11.77
2019-04-28T11:05:47.510Z,11.75
2019-04-28T11:08:17.372Z,11.75
2019-04-28T11:10:45.640Z,11.85
2019-04-28T11:13:13.942Z,12.50
2019-04-28T11:15:42.284Z,13.16
2019-04-28T11:18:11.494Z,13.62
2019-04-28T11:20:39.820Z,14.15
2019-04-28T11:23:08.080Z,14.55
2019-04-28T11:25:36.362Z,14.83
2019-04-28T11:28:04.606Z,14.57
2019-04-28T11:30:33.058Z,14.09
2019-04-28T11:33:05.654Z,13.83
2019-04-28T11:35:35.597Z,14.07
2019-04-28T11:38:03.825Z,14.27
2019-04-28T11:40:32.060Z,14.31
2019-04-28T11:43:00.349Z,13.93
2019-04-28T11:45:28.659Z,13.85
2019-04-28T11:47:56.942Z,13.69
2019-04-28T11:50:25.200Z,13.71
2019-04-28T11:52:53.443Z,13.57
2019-04-28T11:55:21.675Z,13.38
2019-04-28T11:57:49.961Z,12.87
2019-04-28T12:00:22.507Z,12.51
2019-04-28T12:02:50.859Z,12.32
2019-04-28T12:05:33.636Z,12.30
2019-04-28T12:07:50.751Z,12.52
2019-04-28T12:10:32.633Z,12.37
2019-04-28T12:13:05.727Z,12.20
2019-04-28T12:15:38.298Z,11.73
2019-04-28T12:18:11.027Z,11.45
2019-04-28T12:20:40.718Z,11.19
2019-04-28T12:23:09.817Z,11.09
2019-04-28T12:25:38.475Z,10.92
2019-04-28T12:28:06.650Z,10.82
2019-04-28T12:30:34.935Z,10.78
2019-04-28T12:33:03.181Z,10.78
2019-04-28T12:35:31.456Z,10.85
2019-04-28T12:37:59.696Z,10.99
2019-04-28T12:40:27.980Z,11.10
2019-04-28T12:42:56.216Z,11.12
2019-04-28T12:45:34.525Z,11.20
2019-04-28T12:47:54.472Z,11.25
2019-04-28T12:50:27.380Z,11.32
2019-04-28T12:52:55.632Z,11.37
2019-04-28T12:55:23.998Z,11.38
2019-04-28T12:57:52.238Z,11.49
2019-04-28T13:00:38.202Z,11.42
2019-04-28T13:03:13.829Z,11.55
2019-04-28T13:05:43.837Z,11.55
2019-04-28T13:08:12.065Z,11.63
2019-04-28T13:10:40.324Z,11.77
2019-04-28T13:13:08.590Z,11.86
2019-04-28T13:15:36.828Z,11.85
2019-04-28T13:18:05.467Z,11.96
2019-04-28T13:20:33.774Z,12.00
2019-04-28T13:23:02.086Z,12.06
2019-04-28T13:25:30.300Z,12.04
2019-04-28T13:27:58.587Z,12.04
2019-04-28T13:30:26.827Z,11.97
2019-04-28T13:32:55.153Z,12.00
2019-04-28T13:35:23.437Z,12.09
2019-04-28T13:37:51.661Z,12.12
2019-04-28T13:40:27.394Z,12.08
2019-04-28T13:42:55.620Z,12.10
2019-04-28T13:45:25.549Z,12.13
2019-04-28T13:47:53.813Z,12.13
2019-04-28T13:50:28.318Z,12.15
2019-04-28T13:52:56.549Z,12.22
2019-04-28T13:55:26.478Z,12.41
2019-04-28T13:57:55.074Z,12.73
2019-04-28T14:00:25.021Z,12.75
2019-04-28T14:02:57.976Z,12.99
2019-04-28T14:05:27.870Z,13.50
2019-04-28T14:07:56.150Z,13.42
2019-04-28T14:10:24.382Z,13.03
2019-04-28T14:12:52.713Z,12.64
2019-04-28T14:15:20.912Z,12.32
2019-04-28T14:17:49.198Z,12.12
2019-04-28T14:20:17.436Z,12.06
2019-04-28T14:22:45.723Z,12.05
2019-04-28T14:25:13.960Z,12.07
2019-04-28T14:27:42.255Z,12.37
2019-04-28T14:30:10.491Z,12.70
2019-04-28T14:32:38.784Z,12.65
2019-04-28T14:35:07.990Z,12.54
2019-04-28T14:37:36.184Z,12.55
2019-04-28T14:40:06.105Z,12.72
2019-04-28T14:42:34.416Z,12.78
2019-04-28T14:45:02.658Z,12.86
2019-04-28T14:47:30.900Z,12.97
2019-04-28T14:50:02.453Z,12.73
2019-04-28T14:52:29.151Z,12.90
2019-04-28T14:54:57.443Z,13.15
2019-04-28T14:57:25.713Z,13.12
2019-04-28T14:59:54.008Z,13.12
2019-04-28T15:02:29.933Z,12.98
2019-04-28T15:05:08.314Z,12.67
2019-04-28T15:07:50.280Z,12.48
2019-04-28T15:10:36.269Z,12.36
2019-04-28T15:13:05.209Z,12.26
2019-04-28T15:15:33.452Z,12.17
2019-04-28T15:18:01.687Z,12.10
2019-04-28T15:20:30.349Z,11.94
2019-04-28T15:22:58.763Z,11.87
2019-04-28T15:25:27.011Z,11.85
2019-04-28T15:27:55.289Z,11.91
2019-04-28T15:30:23.598Z,11.89
2019-04-28T15:32:51.870Z,11.92
2019-04-28T15:35:20.272Z,11.90
2019-04-28T15:37:48.550Z,11.96
2019-04-28T15:40:16.790Z,11.98
2019-04-28T15:42:45.030Z,12.00
2019-04-28T15:45:13.323Z,12.06
2019-04-28T15:47:41.555Z,12.09
2019-04-28T15:50:09.826Z,12.09
2019-04-28T15:52:38.064Z,12.16
2019-04-28T15:55:08.668Z,12.12
2019-04-28T15:57:36.916Z,12.09
2019-04-28T16:00:08.459Z,12.07
2019-04-28T16:02:36.703Z,12.07
2019-04-28T16:05:07.001Z,12.00
2019-04-28T16:07:35.243Z,12.02
2019-04-28T16:10:04.967Z,12.01
2019-04-28T16:12:33.239Z,12.03
2019-04-28T16:15:01.504Z,12.04
2019-04-28T16:17:29.751Z,12.07
2019-04-28T16:19:57.982Z,12.04
2019-04-28T16:22:26.422Z,12.02
2019-04-28T16:24:54.649Z,12.07
2019-04-28T16:27:22.937Z,12.12
2019-04-28T16:29:51.171Z,12.12
2019-04-28T16:32:19.439Z,12.12
2019-04-28T16:34:47.680Z,12.12
2019-04-28T16:37:15.988Z,12.23
2019-04-28T16:39:44.227Z,12.30
2019-04-28T16:42:21.344Z,12.37
2019-04-28T16:44:54.831Z,12.33
2019-04-28T16:47:23.110Z,12.29
2019-04-28T16:49:51.540Z,12.35
2019-04-28T16:52:19.777Z,12.31
2019-04-28T16:54:49.694Z,12.18
2019-04-28T16:57:25.769Z,12.22
2019-04-28T16:59:55.667Z,12.28
2019-04-28T17:02:31.384Z,12.36
2019-04-28T17:04:59.617Z,12.38
2019-04-28T17:07:27.871Z,12.36
2019-04-28T17:09:56.142Z,12.28
2019-04-28T17:12:24.396Z,12.24
2019-04-28T17:14:52.666Z,12.26
2019-04-28T17:17:20.908Z,12.12
2019-04-28T17:19:49.313Z,11.96
2019-04-28T17:22:17.560Z,12.00
2019-04-28T17:24:45.792Z,12.04
2019-04-28T17:27:15.294Z,12.09
2019-04-28T17:29:43.528Z,12.03
2019-04-28T17:32:11.818Z,11.95
2019-04-28T17:34:40.135Z,11.89
2019-04-28T17:37:08.430Z,11.79
2019-04-28T17:39:36.662Z,11.74
2019-04-28T17:42:05.123Z,11.68
2019-04-28T17:44:33.362Z,11.70
2019-04-28T17:47:01.673Z,11.75
2019-04-28T17:49:31.561Z,11.81
2019-04-28T17:51:59.847Z,11.76
2019-04-28T17:54:28.097Z,11.61
2019-04-28T17:56:56.361Z,11.53
2019-04-28T17:59:24.640Z,11.42
2019-04-28T18:02:06.717Z,11.37
2019-04-28T18:04:36.631Z,11.39
2019-04-28T18:07:06.530Z,11.45
2019-04-28T18:09:34.849Z,11.39
2019-04-28T18:12:03.089Z,11.34
2019-04-28T18:14:32.155Z,11.33
2019-04-28T18:17:04.988Z,11.28
2019-04-28T18:19:33.260Z,11.23
2019-04-28T18:22:01.508Z,11.14
2019-04-28T18:24:29.790Z,11.16
2019-04-28T18:26:58.045Z,11.09
2019-04-28T18:29:26.355Z,11.04
2019-04-28T18:32:08.493Z,11.01
2019-04-28T18:34:47.171Z,10.96
2019-04-28T18:37:20.042Z,10.94
2019-04-28T18:39:49.984Z,10.89
2019-04-28T18:42:22.762Z,10.85
2019-04-28T18:44:51.186Z,10.79
2019-04-28T18:47:19.460Z,10.73
2019-04-28T18:49:47.747Z,10.71
2019-04-28T18:52:16.035Z,10.68
2019-04-28T18:54:44.306Z,10.59
2019-04-28T18:57:12.629Z,10.53
2019-04-28T18:59:40.866Z,10.47
2019-04-28T19:02:16.825Z,10.39
2019-04-28T19:04:45.111Z,10.29
2019-04-28T19:07:15.062Z,10.21
2019-04-28T19:09:44.978Z,10.14
2019-04-28T19:12:14.931Z,10.11
2019-04-28T19:14:47.390Z,10.03
2019-04-28T19:17:20.217Z,9.98
2019-04-28T19:19:48.468Z,9.99
2019-04-28T19:22:16.725Z,10.06
2019-04-28T19:24:45.020Z,10.12
2019-04-28T19:27:13.261Z,10.14
2019-04-28T19:29:41.648Z,10.05
2019-04-28T19:32:09.902Z,9.95
2019-04-28T19:34:38.222Z,9.96
2019-04-28T19:37:06.481Z,9.86
2019-04-28T19:39:34.792Z,9.89
2019-04-28T19:42:03.046Z,9.94
2019-04-28T19:44:31.359Z,9.98
2019-04-28T19:46:59.598Z,10.00
2019-04-28T19:49:27.858Z,10.02
2019-04-28T19:51:56.166Z,9.98
2019-04-28T19:54:26.054Z,9.89
2019-04-28T19:57:01.757Z,9.87
2019-04-28T19:59:31.645Z,9.81
2019-04-28T20:02:02.252Z,9.75
2019-04-28T20:04:29.915Z,9.66
2019-04-28T20:06:58.197Z,9.65
2019-04-28T20:09:26.441Z,9.63
2019-04-28T20:11:54.744Z,9.65
2019-04-28T20:14:22.980Z,9.70
2019-04-28T20:16:51.269Z,9.71
2019-04-28T20:19:19.515Z,9.64
2019-04-28T20:21:47.792Z,9.52
2019-04-28T20:24:16.022Z,9.54
2019-04-28T20:26:44.300Z,9.51
2019-04-28T20:29:12.529Z,9.46
2019-04-28T20:31:40.770Z,9.35
2019-04-28T20:34:09.065Z,9.33
2019-04-28T20:36:38.947Z,9.35
2019-04-28T20:39:08.859Z,9.33
2019-04-28T20:41:37.092Z,9.31
2019-04-28T20:44:05.365Z,9.26
2019-04-28T20:46:33.592Z,9.28
2019-04-28T20:49:01.879Z,9.24
2019-04-28T20:51:30.115Z,9.18
2019-04-28T20:53:58.406Z,9.20
2019-04-28T20:56:26.645Z,9.21
2019-04-28T20:58:54.928Z,9.17
2019-04-28T21:01:23.159Z,9.11
2019-04-28T21:03:51.430Z,9.08
2019-04-28T21:06:19.661Z,9.09
2019-04-28T21:08:47.953Z,9.05
2019-04-28T21:11:16.195Z,8.98
2019-04-28T21:13:44.426Z,8.94
2019-04-28T21:16:12.723Z,8.87
2019-04-28T21:18:40.943Z,8.89
2019-04-28T21:21:09.213Z,8.95
2019-04-28T21:23:37.438Z,8.88
2019-04-28T21:26:05.703Z,8.86
2019-04-28T21:28:33.935Z,8.89
2019-04-28T21:31:02.217Z,8.91
2019-04-28T21:33:30.452Z,8.81
2019-04-28T21:35:58.724Z,8.76
2019-04-28T21:38:26.955Z,8.72
2019-04-28T21:40:55.237Z,8.75
2019-04-28T21:43:25.130Z,8.74
2019-04-28T21:46:01.073Z,8.73
2019-04-28T21:48:39.906Z,8.76
2019-04-28T21:51:11.461Z,8.77
2019-04-28T21:53:38.143Z,8.75
2019-04-28T21:56:06.442Z,8.77
2019-04-28T21:58:34.720Z,8.74
2019-04-28T22:01:03.625Z,8.71
2019-04-28T22:03:31.896Z,8.75
2019-04-28T22:06:00.128Z,8.71
2019-04-28T22:08:28.408Z,8.66
2019-04-28T22:10:56.636Z,8.66
2019-04-28T22:13:24.913Z,8.67
2019-04-28T22:15:53.154Z,8.65
2019-04-28T22:18:21.438Z,8.65
2019-04-28T22:20:49.673Z,8.67
2019-04-28T22:23:36.075Z,8.60
2019-04-28T22:26:04.311Z,8.57
2019-04-28T22:28:32.586Z,8.58
2019-04-28T22:31:00.815Z,8.59
2019-04-28T22:33:29.107Z,8.57
2019-04-28T22:35:57.337Z,8.56
2019-04-28T22:38:25.573Z,8.54
2019-04-28T22:40:53.843Z,8.49
2019-04-28T22:43:22.071Z,8.52
2019-04-28T22:45:50.353Z,8.48
2019-04-28T22:48:20.981Z,8.47
2019-04-28T22:50:49.265Z,8.45
2019-04-28T22:53:19.130Z,8.44
2019-04-28T22:56:01.279Z,8.43
2019-04-28T22:58:36.981Z,8.45
2019-04-28T23:01:16.065Z,8.50
2019-04-28T23:03:57.995Z,8.53
2019-04-28T23:06:26.345Z,8.48
2019-04-28T23:08:54.587Z,8.44
2019-04-28T23:11:22.848Z,8.40
2019-04-28T23:13:51.076Z,8.38
2019-04-28T23:16:19.444Z,8.43
2019-04-28T23:18:47.666Z,8.42
2019-04-28T23:21:20.006Z,8.45
2019-04-28T23:23:48.307Z,8.42
2019-04-28T23:26:16.599Z,8.44
2019-04-28T23:28:44.836Z,8.45
2019-04-28T23:31:13.104Z,8.44
2019-04-28T23:33:41.342Z,8.42
2019-04-28T23:36:09.574Z,8.35
2019-04-28T23:38:37.895Z,8.35
2019-04-28T23:41:16.606Z,8.37
2019-04-28T23:43:44.878Z,8.34
2019-04-28T23:46:13.121Z,8.35
2019-04-28T23:48:41.386Z,8.34
2019-04-28T23:51:11.270Z,8.33
2019-04-28T23:53:57.336Z,8.36
2019-04-28T23:56:25.574Z,8.33
2019-04-28T23:58:53.855Z,8.34
